sensor_id;sensor_type;location;lat;lon;timestamp;P1;durP1;ratioP1;P2;durP2;ratioP2
74532;SDS011;63012;51.096;-115.366;2023-01-10T00:01:23;1.20;;;0.30;;
74532;SDS011;63012;51.096;-115.366;2023-01-10T00:03:50;1.80;;;0.50;;
74532;SDS011;63012;51.096;-115.366;2023-01-10T00:06:17;1.90;;;0.30;;
74532;SDS011;63012;51.096;-115.366;2023-01-10T00:08:45;2.60;;;0.80;;
74532;SDS011;63012;51.096;-115.366;2023-01-10T00:11:11;2.20;;;0.70;;
74532;SDS011;63012;51.096;-115.366;2023-01-10T00:13:57;3.00;;;0.40;;
74532;SDS011;63012;51.096;-115.366;2023-01-10T00:16:23;2.50;;;0.30;;
74532;SDS011;63012;51.096;-115.366;2023-01-10T00:18:51;2.80;;;0.30;;
74532;SDS011;63012;51.096;-115.366;2023-01-10T00:21:18;5.00;;;0.90;;
74532;SDS011;63012;51.096;-115.366;2023-01-10T00:23:45;4.20;;;0.60;;
74532;SDS011;63012;51.096;-115.366;2023-01-10T00:26:14;2.30;;;0.40;;
74532;SDS011;63012;51.096;-115.366;2023-01-10T00:28:41;6.90;;;1.20;;
74532;SDS011;63012;51.096;-115.366;2023-01-10T00:31:08;4.60;;;0.40;;
74532;SDS011;63012;51.096;-115.366;2023-01-10T00:33:37;4.20;;;0.70;;
74532;SDS011;63012;51.096;-115.366;2023-01-10T00:36:06;3.80;;;0.80;;
74532;SDS011;63012;51.096;-115.366;2023-01-10T00:38:35;4.00;;;0.70;;
74532;SDS011;63012;51.096;-115.366;2023-01-10T00:41:02;3.70;;;0.50;;
74532;SDS011;63012;51.096;-115.366;2023-01-10T00:43:49;2.00;;;0.50;;
74532;SDS011;63012;51.096;-115.366;2023-01-10T00:46:22;5.00;;;0.50;;
74532;SDS011;63012;51.096;-115.366;2023-01-10T00:48:50;4.50;;;0.60;;
74532;SDS011;63012;51.096;-115.366;2023-01-10T00:51:17;3.90;;;0.60;;
74532;SDS011;63012;51.096;-115.366;2023-01-10T00:53:45;4.10;;;0.60;;
74532;SDS011;63012;51.096;-115.366;2023-01-10T00:56:12;3.70;;;0.50;;
74532;SDS011;63012;51.096;-115.366;2023-01-10T00:58:39;4.50;;;0.70;;
74532;SDS011;63012;51.096;-115.366;2023-01-10T01:01:06;2.60;;;0.50;;
74532;SDS011;63012;51.096;-115.366;2023-01-10T01:03:33;2.60;;;0.50;;
74532;SDS011;63012;51.096;-115.366;2023-01-10T01:06:05;4.50;;;0.50;;
74532;SDS011;63012;51.096;-115.366;2023-01-10T01:08:33;3.30;;;0.40;;
74532;SDS011;63012;51.096;-115.366;2023-01-10T01:11:00;3.30;;;0.40;;
74532;SDS011;63012;51.096;-115.366;2023-01-10T01:13:27;3.60;;;0.80;;
74532;SDS011;63012;51.096;-115.366;2023-01-10T01:15:58;3.40;;;0.50;;
74532;SDS011;63012;51.096;-115.366;2023-01-10T01:18:25;3.50;;;0.90;;
74532;SDS011;63012;51.096;-115.366;2023-01-10T01:20:55;3.00;;;0.70;;
74532;SDS011;63012;51.096;-115.366;2023-01-10T01:23:25;5.10;;;0.80;;
74532;SDS011;63012;51.096;-115.366;2023-01-10T01:25:54;4.60;;;0.50;;
74532;SDS011;63012;51.096;-115.366;2023-01-10T01:28:22;4.90;;;0.80;;
74532;SDS011;63012;51.096;-115.366;2023-01-10T01:30:50;3.40;;;0.40;;
74532;SDS011;63012;51.096;-115.366;2023-01-10T01:33:18;6.80;;;0.80;;
74532;SDS011;63012;51.096;-115.366;2023-01-10T01:35:47;6.40;;;0.70;;
74532;SDS011;63012;51.096;-115.366;2023-01-10T01:38:16;3.40;;;0.50;;
74532;SDS011;63012;51.096;-115.366;2023-01-10T01:40:43;2.90;;;0.60;;
74532;SDS011;63012;51.096;-115.366;2023-01-10T01:43:24;4.90;;;0.70;;
74532;SDS011;63012;51.096;-115.366;2023-01-10T01:45:54;3.00;;;0.70;;
74532;SDS011;63012;51.096;-115.366;2023-01-10T01:51:15;4.20;;;0.60;;
74532;SDS011;63012;51.096;-115.366;2023-01-10T01:54:04;4.80;;;0.70;;
74532;SDS011;63012;51.096;-115.366;2023-01-10T01:56:54;2.80;;;0.50;;
74532;SDS011;63012;51.096;-115.366;2023-01-10T01:59:55;4.60;;;0.70;;
74532;SDS011;63012;51.096;-115.366;2023-01-10T02:02:27;3.60;;;0.50;;
74532;SDS011;63012;51.096;-115.366;2023-01-10T02:05:02;2.70;;;0.70;;
74532;SDS011;63012;51.096;-115.366;2023-01-10T02:07:41;2.30;;;0.60;;
74532;SDS011;63012;51.096;-115.366;2023-01-10T02:13:19;2.00;;;0.30;;
74532;SDS011;63012;51.096;-115.366;2023-01-10T02:15:49;2.60;;;0.60;;
74532;SDS011;63012;51.096;-115.366;2023-01-10T02:18:17;3.70;;;0.60;;
74532;SDS011;63012;51.096;-115.366;2023-01-10T02:24:11;4.00;;;0.60;;
74532;SDS011;63012;51.096;-115.366;2023-01-10T02:27:19;2.10;;;0.50;;
74532;SDS011;63012;51.096;-115.366;2023-01-10T02:30:04;3.00;;;0.50;;
74532;SDS011;63012;51.096;-115.366;2023-01-10T02:33:43;2.10;;;0.60;;
74532;SDS011;63012;51.096;-115.366;2023-01-10T02:39:15;3.50;;;0.90;;
74532;SDS011;63012;51.096;-115.366;2023-01-10T02:42:08;4.30;;;0.70;;
74532;SDS011;63012;51.096;-115.366;2023-01-10T02:45:16;2.30;;;0.40;;
74532;SDS011;63012;51.096;-115.366;2023-01-10T02:47:55;4.60;;;0.40;;
74532;SDS011;63012;51.096;-115.366;2023-01-10T02:53:21;3.00;;;0.50;;
74532;SDS011;63012;51.096;-115.366;2023-01-10T02:59:03;2.10;;;0.40;;
74532;SDS011;63012;51.096;-115.366;2023-01-10T03:02:06;2.50;;;0.70;;
74532;SDS011;63012;51.096;-115.366;2023-01-10T03:04:53;2.50;;;0.60;;
74532;SDS011;63012;51.096;-115.366;2023-01-10T03:07:45;2.50;;;0.50;;
74532;SDS011;63012;51.096;-115.366;2023-01-10T03:10:57;1.70;;;0.30;;
74532;SDS011;63012;51.096;-115.366;2023-01-10T03:13:31;2.10;;;0.40;;
74532;SDS011;63012;51.096;-115.366;2023-01-10T03:16:12;2.60;;;0.50;;
74532;SDS011;63012;51.096;-115.366;2023-01-10T03:19:03;2.40;;;0.40;;
74532;SDS011;63012;51.096;-115.366;2023-01-10T03:21:36;2.10;;;0.40;;
74532;SDS011;63012;51.096;-115.366;2023-01-10T03:24:18;2.70;;;0.70;;
74532;SDS011;63012;51.096;-115.366;2023-01-10T03:27:19;2.00;;;0.40;;
74532;SDS011;63012;51.096;-115.366;2023-01-10T03:32:35;2.10;;;0.40;;
74532;SDS011;63012;51.096;-115.366;2023-01-10T03:35:03;2.00;;;0.50;;
74532;SDS011;63012;51.096;-115.366;2023-01-10T03:43:43;2.80;;;0.70;;
74532;SDS011;63012;51.096;-115.366;2023-01-10T03:46:58;2.20;;;0.50;;
74532;SDS011;63012;51.096;-115.366;2023-01-10T03:49:34;2.50;;;0.60;;
74532;SDS011;63012;51.096;-115.366;2023-01-10T03:52:07;1.60;;;0.40;;
74532;SDS011;63012;51.096;-115.366;2023-01-10T03:54:37;2.20;;;0.40;;
74532;SDS011;63012;51.096;-115.366;2023-01-10T03:57:05;2.00;;;0.50;;
74532;SDS011;63012;51.096;-115.366;2023-01-10T03:59:33;1.70;;;0.40;;
74532;SDS011;63012;51.096;-115.366;2023-01-10T04:02:00;1.40;;;0.30;;
74532;SDS011;63012;51.096;-115.366;2023-01-10T04:04:27;1.30;;;0.30;;
74532;SDS011;63012;51.096;-115.366;2023-01-10T04:06:54;1.60;;;0.40;;
74532;SDS011;63012;51.096;-115.366;2023-01-10T04:09:21;2.00;;;0.60;;
74532;SDS011;63012;51.096;-115.366;2023-01-10T04:11:48;2.30;;;0.30;;
74532;SDS011;63012;51.096;-115.366;2023-01-10T04:14:15;2.10;;;0.50;;
74532;SDS011;63012;51.096;-115.366;2023-01-10T04:16:42;2.00;;;0.60;;
74532;SDS011;63012;51.096;-115.366;2023-01-10T04:19:09;2.10;;;0.50;;
74532;SDS011;63012;51.096;-115.366;2023-01-10T04:21:37;2.20;;;0.40;;
74532;SDS011;63012;51.096;-115.366;2023-01-10T04:24:04;2.40;;;0.50;;
74532;SDS011;63012;51.096;-115.366;2023-01-10T04:26:31;2.20;;;0.70;;
74532;SDS011;63012;51.096;-115.366;2023-01-10T04:28:58;1.80;;;0.40;;
74532;SDS011;63012;51.096;-115.366;2023-01-10T04:31:25;2.10;;;0.40;;
74532;SDS011;63012;51.096;-115.366;2023-01-10T04:33:53;1.90;;;0.60;;
74532;SDS011;63012;51.096;-115.366;2023-01-10T04:36:20;2.20;;;0.60;;
74532;SDS011;63012;51.096;-115.366;2023-01-10T04:38:47;1.60;;;0.30;;
74532;SDS011;63012;51.096;-115.366;2023-01-10T04:41:14;2.00;;;0.50;;
74532;SDS011;63012;51.096;-115.366;2023-01-10T04:43:42;2.10;;;0.40;;
74532;SDS011;63012;51.096;-115.366;2023-01-10T04:46:09;2.30;;;0.50;;
74532;SDS011;63012;51.096;-115.366;2023-01-10T04:48:36;2.00;;;0.40;;
74532;SDS011;63012;51.096;-115.366;2023-01-10T04:51:03;2.00;;;0.50;;
74532;SDS011;63012;51.096;-115.366;2023-01-10T04:53:30;2.80;;;0.60;;
74532;SDS011;63012;51.096;-115.366;2023-01-10T04:56:05;2.00;;;0.40;;
74532;SDS011;63012;51.096;-115.366;2023-01-10T04:58:35;3.20;;;0.70;;
74532;SDS011;63012;51.096;-115.366;2023-01-10T05:01:10;1.60;;;0.40;;
74532;SDS011;63012;51.096;-115.366;2023-01-10T05:03:39;2.30;;;0.30;;
74532;SDS011;63012;51.096;-115.366;2023-01-10T05:06:07;2.30;;;0.50;;
74532;SDS011;63012;51.096;-115.366;2023-01-10T05:08:34;1.60;;;0.30;;
74532;SDS011;63012;51.096;-115.366;2023-01-10T05:11:02;2.10;;;0.40;;
74532;SDS011;63012;51.096;-115.366;2023-01-10T05:13:29;1.90;;;0.40;;
74532;SDS011;63012;51.096;-115.366;2023-01-10T05:15:57;1.50;;;0.50;;
74532;SDS011;63012;51.096;-115.366;2023-01-10T05:18:25;1.30;;;0.30;;
74532;SDS011;63012;51.096;-115.366;2023-01-10T05:21:04;1.10;;;0.30;;
74532;SDS011;63012;51.096;-115.366;2023-01-10T05:23:33;1.80;;;0.40;;
74532;SDS011;63012;51.096;-115.366;2023-01-10T05:26:13;1.50;;;0.40;;
74532;SDS011;63012;51.096;-115.366;2023-01-10T05:28:42;1.60;;;0.30;;
74532;SDS011;63012;51.096;-115.366;2023-01-10T05:31:12;1.60;;;0.40;;
74532;SDS011;63012;51.096;-115.366;2023-01-10T05:33:49;1.50;;;0.40;;
74532;SDS011;63012;51.096;-115.366;2023-01-10T05:36:17;1.50;;;0.40;;
74532;SDS011;63012;51.096;-115.366;2023-01-10T05:38:45;1.40;;;0.30;;
74532;SDS011;63012;51.096;-115.366;2023-01-10T05:41:12;1.90;;;0.50;;
74532;SDS011;63012;51.096;-115.366;2023-01-10T05:43:39;1.50;;;0.40;;
74532;SDS011;63012;51.096;-115.366;2023-01-10T05:46:06;1.60;;;0.50;;
74532;SDS011;63012;51.096;-115.366;2023-01-10T05:48:34;2.00;;;0.40;;
74532;SDS011;63012;51.096;-115.366;2023-01-10T05:51:01;1.50;;;0.30;;
74532;SDS011;63012;51.096;-115.366;2023-01-10T05:53:28;2.00;;;0.50;;
74532;SDS011;63012;51.096;-115.366;2023-01-10T05:55:57;2.50;;;0.50;;
74532;SDS011;63012;51.096;-115.366;2023-01-10T05:58:26;1.40;;;0.40;;
74532;SDS011;63012;51.096;-115.366;2023-01-10T06:00:55;2.70;;;0.50;;
74532;SDS011;63012;51.096;-115.366;2023-01-10T06:03:23;1.30;;;0.30;;
74532;SDS011;63012;51.096;-115.366;2023-01-10T06:05:55;2.00;;;0.50;;
74532;SDS011;63012;51.096;-115.366;2023-01-10T06:08:23;1.60;;;0.40;;
74532;SDS011;63012;51.096;-115.366;2023-01-10T06:10:51;2.40;;;0.50;;
74532;SDS011;63012;51.096;-115.366;2023-01-10T06:13:18;1.80;;;0.60;;
74532;SDS011;63012;51.096;-115.366;2023-01-10T06:15:45;2.00;;;0.50;;
74532;SDS011;63012;51.096;-115.366;2023-01-10T06:18:13;1.30;;;0.40;;
74532;SDS011;63012;51.096;-115.366;2023-01-10T06:20:42;1.60;;;0.50;;
74532;SDS011;63012;51.096;-115.366;2023-01-10T06:23:09;1.50;;;0.50;;
74532;SDS011;63012;51.096;-115.366;2023-01-10T06:25:37;1.50;;;0.40;;
74532;SDS011;63012;51.096;-115.366;2023-01-10T06:28:08;1.60;;;0.40;;
74532;SDS011;63012;51.096;-115.366;2023-01-10T06:30:37;1.80;;;0.50;;
74532;SDS011;63012;51.096;-115.366;2023-01-10T06:33:08;1.50;;;0.20;;
74532;SDS011;63012;51.096;-115.366;2023-01-10T06:35:36;3.10;;;0.30;;
74532;SDS011;63012;51.096;-115.366;2023-01-10T06:38:03;1.70;;;0.50;;
74532;SDS011;63012;51.096;-115.366;2023-01-10T06:40:30;1.30;;;0.30;;
74532;SDS011;63012;51.096;-115.366;2023-01-10T06:42:57;1.10;;;0.20;;
74532;SDS011;63012;51.096;-115.366;2023-01-10T06:45:25;1.40;;;0.40;;
74532;SDS011;63012;51.096;-115.366;2023-01-10T06:47:52;1.10;;;0.20;;
74532;SDS011;63012;51.096;-115.366;2023-01-10T06:50:19;1.70;;;0.40;;
74532;SDS011;63012;51.096;-115.366;2023-01-10T06:52:55;1.70;;;0.50;;
74532;SDS011;63012;51.096;-115.366;2023-01-10T06:55:27;1.30;;;0.40;;
74532;SDS011;63012;51.096;-115.366;2023-01-10T06:58:01;1.40;;;0.30;;
74532;SDS011;63012;51.096;-115.366;2023-01-10T07:00:30;1.20;;;0.30;;
74532;SDS011;63012;51.096;-115.366;2023-01-10T07:02:59;1.50;;;0.40;;
74532;SDS011;63012;51.096;-115.366;2023-01-10T07:05:27;1.50;;;0.40;;
74532;SDS011;63012;51.096;-115.366;2023-01-10T07:07:55;1.30;;;0.40;;
74532;SDS011;63012;51.096;-115.366;2023-01-10T07:10:23;1.90;;;0.40;;
74532;SDS011;63012;51.096;-115.366;2023-01-10T07:12:52;1.40;;;0.30;;
74532;SDS011;63012;51.096;-115.366;2023-01-10T07:15:20;1.40;;;0.40;;
74532;SDS011;63012;51.096;-115.366;2023-01-10T07:17:48;1.50;;;0.50;;
74532;SDS011;63012;51.096;-115.366;2023-01-10T07:20:15;1.30;;;0.40;;
74532;SDS011;63012;51.096;-115.366;2023-01-10T07:22:43;1.20;;;0.30;;
74532;SDS011;63012;51.096;-115.366;2023-01-10T07:25:18;1.30;;;0.30;;
74532;SDS011;63012;51.096;-115.366;2023-01-10T07:27:45;1.80;;;0.30;;
74532;SDS011;63012;51.096;-115.366;2023-01-10T07:30:12;1.40;;;0.30;;
74532;SDS011;63012;51.096;-115.366;2023-01-10T07:32:39;1.10;;;0.30;;
74532;SDS011;63012;51.096;-115.366;2023-01-10T07:35:06;1.70;;;0.40;;
74532;SDS011;63012;51.096;-115.366;2023-01-10T07:37:34;1.40;;;0.30;;
74532;SDS011;63012;51.096;-115.366;2023-01-10T07:40:01;1.40;;;0.30;;
74532;SDS011;63012;51.096;-115.366;2023-01-10T07:42:28;1.70;;;0.50;;
74532;SDS011;63012;51.096;-115.366;2023-01-10T07:44:55;1.60;;;0.50;;
74532;SDS011;63012;51.096;-115.366;2023-01-10T07:47:22;1.20;;;0.30;;
74532;SDS011;63012;51.096;-115.366;2023-01-10T07:49:49;2.20;;;0.50;;
74532;SDS011;63012;51.096;-115.366;2023-01-10T07:52:16;1.60;;;0.40;;
74532;SDS011;63012;51.096;-115.366;2023-01-10T07:54:43;1.30;;;0.40;;
74532;SDS011;63012;51.096;-115.366;2023-01-10T07:57:11;1.50;;;0.30;;
74532;SDS011;63012;51.096;-115.366;2023-01-10T07:59:38;1.40;;;0.40;;
74532;SDS011;63012;51.096;-115.366;2023-01-10T08:02:05;2.40;;;0.30;;
74532;SDS011;63012;51.096;-115.366;2023-01-10T08:04:35;1.60;;;0.40;;
74532;SDS011;63012;51.096;-115.366;2023-01-10T08:07:04;1.60;;;0.60;;
74532;SDS011;63012;51.096;-115.366;2023-01-10T08:09:31;2.20;;;0.40;;
74532;SDS011;63012;51.096;-115.366;2023-01-10T08:12:00;1.20;;;0.30;;
74532;SDS011;63012;51.096;-115.366;2023-01-10T08:14:27;1.90;;;0.40;;
74532;SDS011;63012;51.096;-115.366;2023-01-10T08:16:55;2.20;;;0.40;;
74532;SDS011;63012;51.096;-115.366;2023-01-10T08:19:26;1.30;;;0.40;;
74532;SDS011;63012;51.096;-115.366;2023-01-10T08:21:56;1.10;;;0.30;;
74532;SDS011;63012;51.096;-115.366;2023-01-10T08:24:23;1.50;;;0.30;;
74532;SDS011;63012;51.096;-115.366;2023-01-10T08:26:51;1.60;;;0.30;;
74532;SDS011;63012;51.096;-115.366;2023-01-10T08:29:18;1.30;;;0.30;;
74532;SDS011;63012;51.096;-115.366;2023-01-10T08:31:47;2.00;;;0.30;;
74532;SDS011;63012;51.096;-115.366;2023-01-10T08:34:21;1.70;;;0.50;;
74532;SDS011;63012;51.096;-115.366;2023-01-10T08:36:56;1.10;;;0.30;;
74532;SDS011;63012;51.096;-115.366;2023-01-10T08:39:34;1.40;;;0.40;;
74532;SDS011;63012;51.096;-115.366;2023-01-10T08:42:04;1.50;;;0.40;;
74532;SDS011;63012;51.096;-115.366;2023-01-10T08:44:31;2.30;;;0.50;;
74532;SDS011;63012;51.096;-115.366;2023-01-10T08:46:59;1.40;;;0.40;;
74532;SDS011;63012;51.096;-115.366;2023-01-10T08:49:27;1.40;;;0.40;;
74532;SDS011;63012;51.096;-115.366;2023-01-10T08:51:54;2.20;;;0.50;;
74532;SDS011;63012;51.096;-115.366;2023-01-10T08:54:22;1.60;;;0.40;;
74532;SDS011;63012;51.096;-115.366;2023-01-10T08:56:51;1.70;;;0.50;;
74532;SDS011;63012;51.096;-115.366;2023-01-10T08:59:19;1.00;;;0.30;;
74532;SDS011;63012;51.096;-115.366;2023-01-10T09:01:46;1.60;;;0.30;;
74532;SDS011;63012;51.096;-115.366;2023-01-10T09:04:16;1.50;;;0.30;;
74532;SDS011;63012;51.096;-115.366;2023-01-10T09:06:43;2.40;;;0.40;;
74532;SDS011;63012;51.096;-115.366;2023-01-10T09:09:11;1.60;;;0.50;;
74532;SDS011;63012;51.096;-115.366;2023-01-10T09:11:38;1.40;;;0.30;;
74532;SDS011;63012;51.096;-115.366;2023-01-10T09:14:07;2.30;;;0.40;;
74532;SDS011;63012;51.096;-115.366;2023-01-10T09:16:38;1.20;;;0.20;;
74532;SDS011;63012;51.096;-115.366;2023-01-10T09:19:06;2.00;;;0.40;;
74532;SDS011;63012;51.096;-115.366;2023-01-10T09:21:38;1.40;;;0.30;;
74532;SDS011;63012;51.096;-115.366;2023-01-10T09:24:05;2.60;;;0.50;;
74532;SDS011;63012;51.096;-115.366;2023-01-10T09:26:33;1.10;;;0.30;;
74532;SDS011;63012;51.096;-115.366;2023-01-10T09:29:00;1.40;;;0.40;;
74532;SDS011;63012;51.096;-115.366;2023-01-10T09:31:30;1.60;;;0.40;;
74532;SDS011;63012;51.096;-115.366;2023-01-10T09:33:57;2.10;;;0.50;;
74532;SDS011;63012;51.096;-115.366;2023-01-10T09:36:25;1.60;;;0.30;;
74532;SDS011;63012;51.096;-115.366;2023-01-10T09:38:52;1.30;;;0.30;;
74532;SDS011;63012;51.096;-115.366;2023-01-10T09:42:24;1.40;;;0.30;;
74532;SDS011;63012;51.096;-115.366;2023-01-10T09:44:49;1.40;;;0.40;;
74532;SDS011;63012;51.096;-115.366;2023-01-10T09:53:23;1.40;;;0.40;;
74532;SDS011;63012;51.096;-115.366;2023-01-10T09:56:13;1.50;;;0.30;;
74532;SDS011;63012;51.096;-115.366;2023-01-10T09:58:43;1.60;;;0.40;;
74532;SDS011;63012;51.096;-115.366;2023-01-10T10:01:14;1.30;;;0.40;;
74532;SDS011;63012;51.096;-115.366;2023-01-10T10:06:51;1.70;;;0.40;;
74532;SDS011;63012;51.096;-115.366;2023-01-10T10:09:30;1.40;;;0.40;;
74532;SDS011;63012;51.096;-115.366;2023-01-10T10:12:17;2.90;;;0.30;;
74532;SDS011;63012;51.096;-115.366;2023-01-10T10:24:47;1.30;;;0.40;;
74532;SDS011;63012;51.096;-115.366;2023-01-10T10:33:59;1.50;;;0.50;;
74532;SDS011;63012;51.096;-115.366;2023-01-10T10:36:52;1.60;;;0.30;;
74532;SDS011;63012;51.096;-115.366;2023-01-10T10:39:42;1.10;;;0.30;;
74532;SDS011;63012;51.096;-115.366;2023-01-10T10:42:17;1.60;;;0.50;;
74532;SDS011;63012;51.096;-115.366;2023-01-10T10:45:06;1.40;;;0.40;;
74532;SDS011;63012;51.096;-115.366;2023-01-10T10:48:21;1.40;;;0.30;;
74532;SDS011;63012;51.096;-115.366;2023-01-10T10:51:03;1.10;;;0.30;;
74532;SDS011;63012;51.096;-115.366;2023-01-10T10:53:34;1.80;;;0.40;;
74532;SDS011;63012;51.096;-115.366;2023-01-10T10:56:04;1.30;;;0.40;;
74532;SDS011;63012;51.096;-115.366;2023-01-10T10:58:36;1.50;;;0.40;;
74532;SDS011;63012;51.096;-115.366;2023-01-10T11:01:05;1.20;;;0.30;;
74532;SDS011;63012;51.096;-115.366;2023-01-10T11:03:50;2.20;;;0.30;;
74532;SDS011;63012;51.096;-115.366;2023-01-10T11:06:38;1.90;;;0.30;;
74532;SDS011;63012;51.096;-115.366;2023-01-10T11:09:19;1.40;;;0.30;;
74532;SDS011;63012;51.096;-115.366;2023-01-10T11:12:00;1.80;;;0.50;;
74532;SDS011;63012;51.096;-115.366;2023-01-10T11:14:49;2.80;;;0.40;;
74532;SDS011;63012;51.096;-115.366;2023-01-10T11:17:26;1.00;;;0.20;;
74532;SDS011;63012;51.096;-115.366;2023-01-10T11:20:00;1.40;;;0.30;;
74532;SDS011;63012;51.096;-115.366;2023-01-10T11:22:48;1.70;;;0.60;;
74532;SDS011;63012;51.096;-115.366;2023-01-10T11:25:30;1.30;;;0.30;;
74532;SDS011;63012;51.096;-115.366;2023-01-10T11:27:58;2.10;;;0.30;;
74532;SDS011;63012;51.096;-115.366;2023-01-10T11:30:32;1.50;;;0.30;;
74532;SDS011;63012;51.096;-115.366;2023-01-10T11:33:04;1.20;;;0.30;;
74532;SDS011;63012;51.096;-115.366;2023-01-10T11:35:36;1.60;;;0.40;;
74532;SDS011;63012;51.096;-115.366;2023-01-10T11:40:54;1.50;;;0.30;;
74532;SDS011;63012;51.096;-115.366;2023-01-10T11:43:50;1.20;;;0.30;;
74532;SDS011;63012;51.096;-115.366;2023-01-10T11:46:22;1.80;;;0.60;;
74532;SDS011;63012;51.096;-115.366;2023-01-10T11:48:59;1.60;;;0.50;;
74532;SDS011;63012;51.096;-115.366;2023-01-10T11:52:05;1.40;;;0.40;;
74532;SDS011;63012;51.096;-115.366;2023-01-10T11:54:52;1.30;;;0.30;;
74532;SDS011;63012;51.096;-115.366;2023-01-10T11:57:27;1.40;;;0.30;;
74532;SDS011;63012;51.096;-115.366;2023-01-10T12:00:03;1.20;;;0.30;;
74532;SDS011;63012;51.096;-115.366;2023-01-10T12:02:41;1.40;;;0.30;;
74532;SDS011;63012;51.096;-115.366;2023-01-10T12:05:17;1.50;;;0.40;;
74532;SDS011;63012;51.096;-115.366;2023-01-10T12:08:10;1.70;;;0.70;;
74532;SDS011;63012;51.096;-115.366;2023-01-10T12:11:06;1.40;;;0.40;;
74532;SDS011;63012;51.096;-115.366;2023-01-10T12:13:54;1.40;;;0.30;;
74532;SDS011;63012;51.096;-115.366;2023-01-10T12:16:28;1.50;;;0.40;;
74532;SDS011;63012;51.096;-115.366;2023-01-10T12:19:10;1.60;;;0.50;;
74532;SDS011;63012;51.096;-115.366;2023-01-10T12:21:44;1.50;;;0.40;;
74532;SDS011;63012;51.096;-115.366;2023-01-10T12:24:40;1.70;;;0.30;;
74532;SDS011;63012;51.096;-115.366;2023-01-10T12:27:18;2.00;;;0.40;;
74532;SDS011;63012;51.096;-115.366;2023-01-10T12:30:34;1.50;;;0.40;;
74532;SDS011;63012;51.096;-115.366;2023-01-10T12:33:11;1.80;;;0.50;;
74532;SDS011;63012;51.096;-115.366;2023-01-10T12:36:01;1.50;;;0.40;;
74532;SDS011;63012;51.096;-115.366;2023-01-10T12:38:37;1.30;;;0.30;;
74532;SDS011;63012;51.096;-115.366;2023-01-10T12:41:52;1.30;;;0.40;;
74532;SDS011;63012;51.096;-115.366;2023-01-10T12:44:48;1.60;;;0.50;;
74532;SDS011;63012;51.096;-115.366;2023-01-10T12:47:28;1.40;;;0.30;;
74532;SDS011;63012;51.096;-115.366;2023-01-10T12:50:10;1.70;;;0.40;;
74532;SDS011;63012;51.096;-115.366;2023-01-10T12:53:05;1.20;;;0.30;;
74532;SDS011;63012;51.096;-115.366;2023-01-10T12:55:43;1.10;;;0.30;;
74532;SDS011;63012;51.096;-115.366;2023-01-10T13:01:37;1.70;;;0.40;;
74532;SDS011;63012;51.096;-115.366;2023-01-10T13:04:11;1.40;;;0.40;;
74532;SDS011;63012;51.096;-115.366;2023-01-10T13:06:46;1.70;;;0.30;;
74532;SDS011;63012;51.096;-115.366;2023-01-10T13:09:18;1.90;;;0.40;;
74532;SDS011;63012;51.096;-115.366;2023-01-10T13:22:55;1.80;;;0.40;;
74532;SDS011;63012;51.096;-115.366;2023-01-10T13:28:26;1.40;;;0.40;;
74532;SDS011;63012;51.096;-115.366;2023-01-10T13:30:59;2.50;;;0.50;;
74532;SDS011;63012;51.096;-115.366;2023-01-10T13:33:56;1.60;;;0.30;;
74532;SDS011;63012;51.096;-115.366;2023-01-10T13:36:50;1.40;;;0.40;;
74532;SDS011;63012;51.096;-115.366;2023-01-10T13:39:35;1.60;;;0.40;;
74532;SDS011;63012;51.096;-115.366;2023-01-10T14:01:25;1.20;;;0.30;;
74532;SDS011;63012;51.096;-115.366;2023-01-10T14:04:30;1.70;;;0.40;;
74532;SDS011;63012;51.096;-115.366;2023-01-10T14:07:20;1.50;;;0.50;;
74532;SDS011;63012;51.096;-115.366;2023-01-10T14:10:06;1.30;;;0.30;;
74532;SDS011;63012;51.096;-115.366;2023-01-10T14:13:24;1.10;;;0.30;;
74532;SDS011;63012;51.096;-115.366;2023-01-10T14:15:46;1.20;;;0.30;;
74532;SDS011;63012;51.096;-115.366;2023-01-10T14:18:34;1.50;;;0.30;;
74532;SDS011;63012;51.096;-115.366;2023-01-10T14:21:20;2.00;;;0.50;;
74532;SDS011;63012;51.096;-115.366;2023-01-10T14:23:55;1.20;;;0.30;;
74532;SDS011;63012;51.096;-115.366;2023-01-10T14:26:39;1.60;;;0.50;;
74532;SDS011;63012;51.096;-115.366;2023-01-10T14:29:13;1.20;;;0.30;;
74532;SDS011;63012;51.096;-115.366;2023-01-10T14:31:48;1.00;;;0.20;;
74532;SDS011;63012;51.096;-115.366;2023-01-10T14:34:26;1.70;;;0.40;;
74532;SDS011;63012;51.096;-115.366;2023-01-10T14:37:37;1.50;;;0.50;;
74532;SDS011;63012;51.096;-115.366;2023-01-10T14:43:10;1.60;;;0.50;;
74532;SDS011;63012;51.096;-115.366;2023-01-10T14:45:58;1.60;;;0.40;;
74532;SDS011;63012;51.096;-115.366;2023-01-10T14:48:33;3.10;;;0.60;;
74532;SDS011;63012;51.096;-115.366;2023-01-10T14:56:41;3.10;;;0.30;;
74532;SDS011;63012;51.096;-115.366;2023-01-10T14:59:32;3.10;;;0.30;;
74532;SDS011;63012;51.096;-115.366;2023-01-10T15:02:20;2.70;;;0.40;;
74532;SDS011;63012;51.096;-115.366;2023-01-10T15:05:06;4.90;;;0.60;;
74532;SDS011;63012;51.096;-115.366;2023-01-10T15:07:41;5.10;;;0.50;;
74532;SDS011;63012;51.096;-115.366;2023-01-10T15:10:34;3.80;;;0.40;;
74532;SDS011;63012;51.096;-115.366;2023-01-10T15:13:08;4.10;;;0.40;;
74532;SDS011;63012;51.096;-115.366;2023-01-10T15:15:50;3.60;;;0.80;;
74532;SDS011;63012;51.096;-115.366;2023-01-10T15:18:43;4.80;;;0.90;;
74532;SDS011;63012;51.096;-115.366;2023-01-10T15:21:13;5.20;;;0.80;;
74532;SDS011;63012;51.096;-115.366;2023-01-10T15:23:44;6.50;;;1.10;;
74532;SDS011;63012;51.096;-115.366;2023-01-10T15:26:26;5.50;;;0.60;;
74532;SDS011;63012;51.096;-115.366;2023-01-10T15:29:14;3.20;;;0.50;;
74532;SDS011;63012;51.096;-115.366;2023-01-10T15:31:47;5.00;;;0.90;;
74532;SDS011;63012;51.096;-115.366;2023-01-10T15:34:18;1.90;;;0.40;;
74532;SDS011;63012;51.096;-115.366;2023-01-10T15:36:52;4.20;;;0.40;;
74532;SDS011;63012;51.096;-115.366;2023-01-10T15:39:24;2.70;;;0.60;;
74532;SDS011;63012;51.096;-115.366;2023-01-10T15:42:17;5.70;;;0.60;;
74532;SDS011;63012;51.096;-115.366;2023-01-10T15:44:48;6.20;;;0.50;;
74532;SDS011;63012;51.096;-115.366;2023-01-10T15:47:33;3.70;;;0.50;;
74532;SDS011;63012;51.096;-115.366;2023-01-10T15:50:31;1.80;;;0.40;;
74532;SDS011;63012;51.096;-115.366;2023-01-10T15:53:06;1.80;;;0.40;;
74532;SDS011;63012;51.096;-115.366;2023-01-10T15:55:52;3.10;;;0.60;;
74532;SDS011;63012;51.096;-115.366;2023-01-10T15:58:31;1.50;;;0.30;;
74532;SDS011;63012;51.096;-115.366;2023-01-10T16:01:02;4.90;;;0.40;;
74532;SDS011;63012;51.096;-115.366;2023-01-10T16:03:38;2.00;;;0.50;;
74532;SDS011;63012;51.096;-115.366;2023-01-10T16:06:25;2.10;;;0.40;;
74532;SDS011;63012;51.096;-115.366;2023-01-10T16:08:55;3.30;;;0.50;;
74532;SDS011;63012;51.096;-115.366;2023-01-10T16:12:02;1.80;;;0.50;;
74532;SDS011;63012;51.096;-115.366;2023-01-10T16:14:41;2.00;;;0.50;;
74532;SDS011;63012;51.096;-115.366;2023-01-10T16:17:09;1.60;;;0.30;;
74532;SDS011;63012;51.096;-115.366;2023-01-10T16:19:37;3.70;;;0.50;;
74532;SDS011;63012;51.096;-115.366;2023-01-10T16:22:06;1.80;;;0.40;;
74532;SDS011;63012;51.096;-115.366;2023-01-10T16:24:43;1.80;;;0.40;;
74532;SDS011;63012;51.096;-115.366;2023-01-10T16:27:12;3.50;;;0.40;;
74532;SDS011;63012;51.096;-115.366;2023-01-10T16:29:39;4.30;;;0.60;;
74532;SDS011;63012;51.096;-115.366;2023-01-10T16:32:13;3.30;;;0.50;;
74532;SDS011;63012;51.096;-115.366;2023-01-10T16:34:41;3.10;;;0.60;;